Pagrindinis puslapis
METAR-TAF:

METAR-TAF

Oro uostai :

Izmitas, Turkija

platuma: 40-44N, ilguma: 030-05E, Aukštis: 50 m

Dabartinis oras

Ataskaita buvo paskelbta 57 minutes, ne 19:50 UTC
Ramus vėjas
Temperatūra 2°C
Drėgmė 100%
Slėgis 1025 hPa
Matomumas 10 km arba daugiau
Mažai debesys ne aukštis 2600 ft

METAR: LTBQ 151950Z 00000KT 9999 FEW026 02/02 Q1025 NOSIG

Laikas: 23:47 (20:47 UTC)

Prognozė

Ataskaita buvo paskelbta 1 valandą ir 7 minutes, ne 19:40 UTC
Prognozė galioja nuo 15 metu 21 UTC su 16 metu 06 UTC
Vėjas 2 kt nuo kintamojo kryptimis
Matomumas 10 km arba daugiau
nėra debesų žemiau 1500 m ir nėra kamuolinių lietaus debesų
Tapsmas
nuo 16 metu 00 UTC su 16 metu 02 UTC
Matomumas: 4000 m
Išsisklaidę debesys ne aukštis 600 ft
rūkana
Laikinai
nuo 16 metu 04 UTC su 16 metu 06 UTC
Matomumas: 1200 m
Su prošvaistėmis ne aukštis 600 ft
Rūkas lopais

TAF: LTBQ 151940Z 1521/1606 VRB02KT CAVOK BECMG 1600/1602 4000 BR SCT006 TEMPO 1604/1606 1200 BCFG BKN006

Orai ataskaitas ir orų prognozės (METAR, TAF).

turimą stotys yra geltonos ir raudonos taškus žemėlapyje.

Perkelti pele per norėdami pamatyti stoties vardą.

Tada spustelėkite, norėdami matyti oro stebėjimo ir prognozės.

Norėdami pakeisti žemėlapį: spustelėkite ant žalios mygtukų su juodo kryžiaus žemyn,; žalią mygtuką su brūkšneliu, jei norite nutolinti; arba žalių rodyklių gretimoms žemėlapius.


METAR-TAF: